KLMT

Crater Lake-Klamath Regional Airport

Klamath Falls, Oregon, USA
METAR KLMT 221653Z 36006KT 10SM CLR 20/09 A2996 RMK AO2 SLP110 T02000094
Observed Flight Rules
May-22 @ 16:53 UTC (60 minutes ago) Visual Flight Rules
Wind Visibility Clouds
360° at 6 knots 10 miles
  • Clear skies
Temperatures Readings
Current 20°C / 68°F
Dewpoint 9°C / 48°F
Humidity 49%
Altimeter 29.96" Hg
Pressure 1011 hPa
Elevation 1246
METAR KLMT 221653Z 36006KT 10SM CLR 20/09 A2996 RMK AO2 SLP110 T02000094
Observed Flight Rules
May-22 @ 16:53 UTC
(60 minutes ago)
VFR
Wind Visibility
360° at 6 knots 10 miles
Clouds
  • Clear skies
Temperature Dewpoint
20°C / 68°F 9°C / 48°F
Humidity Altimeter Pressure
49% 29.96" Hg 1011 hPa